Time;durP1;ratioP1;P1;durP2;ratioP2;P2;SDS_P1;SDS_P2;PMS_P1;PMS_P2;Temp;Humidity;BMP_temperature;BMP_pressure;BME280_temperature;BME280_humidity;BME280_pressure;Samples;Min_cycle;Max_cycle;Signal;HPM_P1;HPM_P2
2022/12/23 00:00:54;;;;;;;29.23;13.05;;;;;;;9.56;68.73;98297.38;4332352;33;20099;-80
2022/12/23 00:03:19;;;;;;;32.10;12.85;;;;;;;9.61;68.24;98292.66;4319590;33;20130;-80
2022/12/23 00:05:45;;;;;;;26.17;10.85;;;;;;;9.14;70.06;98290.16;4320416;33;20139;-80
2022/12/23 00:08:10;;;;;;;29.73;12.40;;;;;;;8.65;72.27;98306.84;4332993;33;20158;-80
2022/12/23 00:10:39;;;;;;;32.38;14.10;;;;;;;8.76;72.41;98293.97;4330246;33;20420;-79
2022/12/23 00:15:49;;;;;;;31.98;13.60;;;;;;;8.69;72.31;98300.50;4333335;33;20122;-80
2022/12/23 00:18:14;;;;;;;33.13;15.30;;;;;;;9.20;70.30;98302.94;4333165;33;20131;-78
2022/12/23 00:20:40;;;;;;;37.10;16.77;;;;;;;8.90;71.29;98306.34;4333242;33;20129;-82
2022/12/23 00:23:05;;;;;;;35.70;16.33;;;;;;;8.41;73.51;98304.62;4332793;33;20139;-82
2022/12/23 00:25:44;;;;;;;36.78;16.98;;;;;;;8.71;71.87;98306.53;4334033;33;20126;-82
2022/12/23 00:28:19;;;;;;;36.95;17.60;;;;;;;8.57;72.56;98307.25;4308553;33;20126;-83
2022/12/23 00:30:50;;;;;;;43.15;18.35;;;;;;;8.20;74.23;98310.97;4328417;33;20121;-82
2022/12/23 00:33:17;;;;;;;41.25;18.62;;;;;;;8.76;71.18;98309.75;4321389;33;20112;-81
2022/12/23 00:35:43;;;;;;;46.83;20.42;;;;;;;8.07;74.68;98314.25;4331836;33;20455;-83
2022/12/23 00:38:08;;;;;;;41.95;19.35;;;;;;;8.79;71.23;98299.09;4331881;33;20139;-82
2022/12/23 00:43:18;;;;;;;34.38;16.35;;;;;;;8.90;70.50;98293.22;4321741;33;20130;-82
2022/12/23 00:45:43;;;;;;;35.53;15.13;;;;;;;8.89;70.87;98288.06;4319026;33;20751;-82
2022/12/23 00:50:53;;;;;;;29.48;12.73;;;;;;;8.80;71.81;98292.03;4326552;33;20122;-81
2022/12/23 00:53:19;;;;;;;31.55;13.25;;;;;;;8.82;72.61;98293.63;4319569;33;20395;-82
2022/12/23 00:55:46;;;;;;;31.80;12.30;;;;;;;8.54;73.33;98293.47;4332357;33;20096;-81
2022/12/23 00:58:13;;;;;;;33.50;13.32;;;;;;;8.51;74.23;98301.50;4319494;33;20084;-81
2022/12/23 01:06:14;;;;;;;33.33;13.00;;;;;;;8.99;72.68;98286.63;4272648;33;20123;-82
2022/12/23 01:08:39;;;;;;;29.35;13.18;;;;;;;8.61;74.14;98295.66;4271177;33;20124;-81
2022/12/23 01:11:07;;;;;;;27.80;11.93;;;;;;;8.84;73.20;98281.28;4271622;33;20517;-81
2022/12/23 01:13:33;;;;;;;31.40;13.30;;;;;;;9.07;72.29;98289.66;4272361;33;20204;-82
2022/12/23 01:16:04;;;;;;;28.23;11.50;;;;;;;9.06;72.09;98282.72;4272252;33;20486;-82
2022/12/23 01:18:30;;;;;;;26.65;11.18;;;;;;;9.12;72.05;98281.53;4271877;33;20509;-82
2022/12/23 01:20:55;;;;;;;27.35;12.35;;;;;;;9.38;70.99;98286.13;4272968;33;20261;-81
2022/12/23 01:23:21;;;;;;;27.73;12.15;;;;;;;9.03;72.92;98282.88;4271324;33;20460;-82
2022/12/23 01:25:55;;;;;;;27.50;12.55;;;;;;;8.93;73.47;98279.09;4269968;33;20121;-82
2022/12/23 01:28:20;;;;;;;30.45;13.48;;;;;;;9.07;73.60;98279.13;4271892;33;20140;-80
2022/12/23 01:30:45;;;;;;;28.38;13.15;;;;;;;8.44;75.59;98282.59;4272597;33;20116;-82
2022/12/23 01:33:11;;;;;;;31.25;13.48;;;;;;;9.13;72.89;98270.06;4272440;33;20113;-83
2022/12/23 01:35:36;;;;;;;31.98;14.77;;;;;;;9.44;71.52;98270.00;4270366;33;20129;-82
2022/12/23 01:38:01;;;;;;;28.25;12.90;;;;;;;9.77;69.87;98271.59;4270843;33;20121;-82
2022/12/23 01:40:33;;;;;;;30.00;13.77;;;;;;;9.75;69.82;98264.72;4299711;33;20076;-83
2022/12/23 01:42:59;;;;;;;31.83;14.02;;;;;;;9.18;72.13;98266.25;4332851;33;20452;-82
2022/12/23 01:45:29;;;;;;;29.85;13.15;;;;;;;9.82;69.57;98255.53;4329762;33;20207;-81
2022/12/23 01:47:55;;;;;;;28.67;12.05;;;;;;;9.75;70.06;98259.44;4319772;33;20213;-82
2022/12/23 01:50:24;;;;;;;31.30;13.82;;;;;;;9.69;70.38;98257.19;4331299;33;20092;-80
2022/12/23 01:52:56;;;;;;;31.90;14.70;;;;;;;9.98;69.21;98261.53;4331259;33;20100;-80
2022/12/23 01:55:24;;;;;;;32.33;13.88;;;;;;;10.04;68.92;98253.28;4333200;33;20223;-82
2022/12/23 01:57:51;;;;;;;29.52;14.57;;;;;;;9.81;69.79;98244.16;4331339;33;20103;-82
2022/12/23 02:05:52;;;;;;;35.75;15.88;;;;;;;10.14;67.51;98242.19;4278048;33;20508;-83
2022/12/23 02:11:47;;;;;;;41.15;19.10;;;;;;;9.36;70.28;98240.66;4268906;33;20120;-82
2022/12/23 02:17:30;;;;;;;40.60;19.85;;;;;;;9.92;66.95;98230.34;4198294;34;20141;-81
2022/12/23 02:20:30;;;;;;;42.92;19.35;;;;;;;9.92;66.74;98232.97;4194156;34;20129;-82
2022/12/23 02:23:29;;;;;;;45.33;19.58;;;;;;;10.03;65.81;98227.06;4149041;34;20104;-82
2022/12/23 02:25:54;;;;;;;469.37;42.47;;;;;;;9.83;65.83;98233.53;4153622;34;20101;-81
2022/12/23 02:28:53;;;;;;;59.60;21.62;;;;;;;9.68;65.83;98231.81;4155642;34;20185;-81
2022/12/23 02:31:27;;;;;;;43.15;18.98;;;;;;;9.55;65.72;98226.44;4149974;34;20127;-80
2022/12/23 02:34:14;;;;;;;48.50;21.27;;;;;;;9.49;65.95;98232.09;4154402;34;20094;-81
2022/12/23 02:36:52;;;;;;;40.97;18.85;;;;;;;9.55;65.56;98222.03;4156721;34;20474;-83
2022/12/23 02:39:24;;;;;;;356.95;37.50;;;;;;;9.58;65.62;98223.63;4142429;34;20192;-82
2022/12/23 02:42:03;;;;;;;43.83;20.52;;;;;;;9.45;66.11;98232.25;4195419;34;20456;-82
2022/12/23 02:44:58;;;;;;;105.37;24.00;;;;;;;9.56;65.52;98225.50;4215537;34;20083;-83
2022/12/23 02:47:28;;;;;;;61.92;21.92;;;;;;;9.56;65.48;98230.75;4211110;34;20202;-83
2022/12/23 02:49:57;;;;;;;47.13;21.30;;;;;;;9.55;65.33;98229.09;4215198;34;20102;-83
2022/12/23 02:52:28;;;;;;;76.45;24.58;;;;;;;9.58;65.24;98227.13;4254172;33;20084;-83
2022/12/23 02:55:02;;;;;;;102.40;25.58;;;;;;;9.57;64.96;98222.78;4247479;33;20700;-83
2022/12/23 02:57:32;;;;;;;105.18;28.25;;;;;;;9.57;65.02;98224.56;4258914;33;20105;-82
2022/12/23 02:59:59;;;;;;;52.38;22.83;;;;;;;9.59;64.86;98226.16;4305539;33;20107;-84
2022/12/23 03:02:24;;;;;;;65.07;23.90;;;;;;;9.58;64.84;98235.00;4318699;33;20169;-84
2022/12/23 03:04:50;;;;;;;91.63;27.92;;;;;;;9.57;64.96;98230.66;4331914;33;20838;-82
2022/12/23 03:07:40;;;;;;;192.55;30.83;;;;;;;9.57;64.89;98227.19;4330973;33;20426;-83
2022/12/23 03:10:20;;;;;;;48.92;23.50;;;;;;;9.54;65.03;98227.38;4317483;33;20107;-83
2022/12/23 03:13:06;;;;;;;54.47;23.50;;;;;;;9.53;65.14;98229.16;4331772;33;20532;-83
2022/12/23 03:15:46;;;;;;;81.93;26.23;;;;;;;9.08;66.27;98232.69;4329530;33;20167;-83
2022/12/23 03:18:33;;;;;;;91.47;26.58;;;;;;;9.32;65.38;98230.44;4318315;33;20101;-84
2022/12/23 03:21:09;;;;;;;76.82;25.10;;;;;;;9.28;65.49;98227.13;4331869;33;20151;-83
2022/12/23 03:23:40;;;;;;;89.80;25.85;;;;;;;9.36;65.15;98224.91;4330717;33;20084;-84
2022/12/23 03:26:05;;;;;;;86.37;26.83;;;;;;;9.34;65.20;98218.03;4318082;33;20091;-83
2022/12/23 03:28:53;;;;;;;70.05;26.90;;;;;;;9.36;64.72;98214.38;4331317;33;20126;-83
2022/12/23 03:31:23;;;;;;;177.75;31.50;;;;;;;9.38;64.60;98215.13;4319960;33;20107;-84
2022/12/23 03:33:53;;;;;;;171.65;31.73;;;;;;;9.32;64.68;98214.66;4332099;33;20111;-84
2022/12/23 03:36:33;;;;;;;266.10;37.47;;;;;;;9.27;64.90;98212.28;4330365;33;20453;-84
2022/12/23 03:39:01;;;;;;;405.85;46.42;;;;;;;9.00;65.27;98217.34;4318203;33;20457;-83
2022/12/23 03:41:30;;;;;;;155.02;32.05;;;;;;;9.09;64.89;98226.50;4317059;33;20125;-84
2022/12/23 03:44:03;;;;;;;172.60;30.73;;;;;;;9.08;64.88;98212.53;4318720;33;20118;-83
2022/12/23 03:46:37;;;;;;;185.12;36.88;;;;;;;9.07;65.09;98220.50;4331714;33;20084;-83
2022/12/23 03:49:08;;;;;;;212.23;35.10;;;;;;;9.09;65.02;98205.50;4331588;33;20085;-84
2022/12/23 03:51:39;;;;;;;362.08;40.80;;;;;;;9.12;64.80;98207.94;4317306;33;20155;-83
2022/12/23 03:54:15;;;;;;;80.35;28.05;;;;;;;8.54;66.28;98207.69;4329651;33;20120;-84
2022/12/23 03:56:46;;;;;;;102.68;29.60;;;;;;;8.89;65.59;98210.09;4328613;33;20126;-81
2022/12/23 03:59:19;;;;;;;90.00;27.55;;;;;;;8.99;65.23;98207.81;4330276;33;20100;-84
2022/12/23 04:02:07;;;;;;;172.68;29.92;;;;;;;9.07;65.06;98197.69;4318097;33;20219;-84
2022/12/23 04:05:10;;;;;;;92.22;25.62;;;;;;;8.49;66.53;98206.25;4331050;33;20527;-81
2022/12/23 04:07:42;;;;;;;168.45;28.40;;;;;;;8.62;66.36;98199.38;4323336;33;20083;-83
2022/12/23 04:10:09;;;;;;;164.93;29.17;;;;;;;8.61;65.73;98203.75;4332151;33;20163;-83
2022/12/23 04:12:35;;;;;;;157.45;29.77;;;;;;;8.53;66.27;98208.59;4330377;33;20108;-81
2022/12/23 04:15:00;;;;;;;220.85;33.28;;;;;;;8.30;67.22;98201.97;4319974;33;20079;-81
2022/12/23 04:17:26;;;;;;;135.82;28.67;;;;;;;8.40;67.10;98197.94;4333948;33;20118;-82
2022/12/23 04:19:52;;;;;;;150.68;27.85;;;;;;;8.20;67.84;98195.53;4330489;33;20560;-82
2022/12/23 04:22:17;;;;;;;86.32;27.37;;;;;;;8.40;67.16;98187.44;4319500;33;20155;-82
2022/12/23 04:24:43;;;;;;;90.75;26.85;;;;;;;8.55;66.93;98184.91;4332137;33;20118;-82
2022/12/23 04:27:11;;;;;;;99.43;26.98;;;;;;;8.58;67.01;98180.31;4320091;33;20142;-82
2022/12/23 04:29:37;;;;;;;134.70;30.50;;;;;;;8.62;66.95;98186.25;4333120;33;20138;-81
2022/12/23 04:32:03;;;;;;;197.52;34.22;;;;;;;8.69;66.80;98192.84;4332245;33;20727;-83
2022/12/23 04:34:28;;;;;;;138.57;30.65;;;;;;;8.59;67.04;98191.66;4319625;33;21601;-83
2022/12/23 04:36:54;;;;;;;340.02;40.42;;;;;;;8.64;66.63;98192.25;4332978;33;20349;-84
2022/12/23 04:39:19;;;;;;;143.00;28.08;;;;;;;8.06;67.84;98194.50;4319243;33;20107;-82
2022/12/23 04:41:45;;;;;;;58.40;24.58;;;;;;;8.34;67.49;98197.41;4333172;33;21447;-83
2022/12/23 04:44:10;;;;;;;252.55;35.33;;;;;;;8.55;67.13;98195.41;4333679;33;20107;-83
2022/12/23 04:46:35;;;;;;;175.98;31.05;;;;;;;8.41;67.14;98190.88;4332284;33;20711;-82
2022/12/23 04:49:01;;;;;;;269.65;37.50;;;;;;;8.43;67.10;98199.56;4329586;33;20099;-84
2022/12/23 04:51:26;;;;;;;117.75;29.83;;;;;;;8.29;67.07;98202.91;4332204;33;20122;-83
2022/12/23 04:53:51;;;;;;;142.98;31.17;;;;;;;8.22;67.58;98205.00;4332017;33;20103;-82
2022/12/23 04:56:17;;;;;;;102.43;25.83;;;;;;;8.27;67.51;98196.91;4332853;33;20092;-83
2022/12/23 04:58:42;;;;;;;214.70;33.05;;;;;;;8.31;67.65;98197.59;4333449;33;20238;-83
2022/12/23 05:01:09;;;;;;;142.70;30.30;;;;;;;8.42;67.45;98198.72;4332075;33;20100;-84
2022/12/23 05:03:36;;;;;;;118.20;27.08;;;;;;;8.26;67.83;98188.16;4329932;33;20091;-83
2022/12/23 05:06:02;;;;;;;225.07;31.62;;;;;;;8.37;67.81;98187.59;4319802;33;20088;-81
2022/12/23 05:08:27;;;;;;;315.40;36.45;;;;;;;8.33;67.58;98180.81;4332786;33;20119;-84
2022/12/23 05:10:53;;;;;;;229.80;32.53;;;;;;;7.74;68.71;98188.34;4332737;33;20103;-82
2022/12/23 05:13:18;;;;;;;234.87;32.67;;;;;;;7.72;68.89;98199.84;4318388;33;20091;-83
2022/12/23 05:15:45;;;;;;;257.58;33.75;;;;;;;7.87;68.47;98196.41;4333114;33;20104;-82
2022/12/23 05:18:11;;;;;;;180.23;28.30;;;;;;;7.90;68.11;98198.88;4318507;33;20100;-82
2022/12/23 05:20:36;;;;;;;461.98;48.10;;;;;;;7.82;68.36;98203.66;4319720;33;20096;-83
2022/12/23 05:23:01;;;;;;;315.48;39.45;;;;;;;7.50;69.04;98206.22;4319179;33;20100;-82
2022/12/23 05:25:27;;;;;;;159.90;29.37;;;;;;;7.60;69.14;98203.97;4333796;33;20130;-84
2022/12/23 05:27:52;;;;;;;122.25;27.42;;;;;;;7.73;69.01;98196.31;4331555;33;20134;-82
2022/12/23 05:30:18;;;;;;;118.78;24.33;;;;;;;7.85;68.92;98198.28;4333752;33;20084;-84
2022/12/23 05:32:43;;;;;;;75.15;23.92;;;;;;;7.96;68.93;98193.31;4332091;33;20398;-81
2022/12/23 05:35:09;;;;;;;179.87;27.75;;;;;;;7.98;68.75;98191.44;4331857;33;20080;-84
2022/12/23 05:37:35;;;;;;;218.12;30.50;;;;;;;7.65;69.38;98197.56;4332920;33;20143;-83
2022/12/23 05:40:00;;;;;;;68.87;22.95;;;;;;;7.76;69.05;98193.50;4334592;33;20155;-83
2022/12/23 05:42:25;;;;;;;173.40;26.90;;;;;;;7.96;69.05;98205.56;4331811;33;20127;-82
2022/12/23 05:44:51;;;;;;;117.93;26.52;;;;;;;7.98;68.83;98204.56;4322316;33;20099;-83
2022/12/23 05:47:16;;;;;;;106.68;25.42;;;;;;;8.01;68.86;98204.38;4332998;33;20111;-82
2022/12/23 05:49:41;;;;;;;164.68;25.58;;;;;;;8.12;68.48;98205.59;4333255;33;20095;-83
2022/12/23 05:52:07;;;;;;;96.97;23.52;;;;;;;8.04;68.27;98206.84;4318592;33;20384;-82
2022/12/23 05:54:32;;;;;;;132.20;24.98;;;;;;;8.00;68.43;98212.34;4331430;33;20100;-84
2022/12/23 05:56:58;;;;;;;134.30;23.83;;;;;;;8.14;68.09;98212.44;4331538;33;20151;-83
2022/12/23 05:59:23;;;;;;;307.23;34.88;;;;;;;8.07;68.07;98217.19;4332437;33;20088;-83
2022/12/23 06:01:48;;;;;;;342.73;35.63;;;;;;;8.15;68.11;98211.53;4331452;33;20147;-84
2022/12/23 06:04:14;;;;;;;213.12;27.83;;;;;;;8.18;67.85;98219.22;4333057;33;20139;-84
2022/12/23 06:06:39;;;;;;;296.98;34.65;;;;;;;8.18;67.28;98213.97;4332987;33;20414;-84
2022/12/23 06:09:05;;;;;;;148.50;26.42;;;;;;;7.78;68.69;98215.25;4330515;33;20127;-83
2022/12/23 06:11:30;;;;;;;96.50;23.55;;;;;;;8.03;68.35;98213.00;4330636;33;20103;-83
2022/12/23 06:13:55;;;;;;;227.62;31.60;;;;;;;8.14;67.88;98216.87;4332048;33;20150;-82
2022/12/23 06:16:21;;;;;;;437.77;40.08;;;;;;;7.74;68.23;98213.72;4332906;33;20095;-82
2022/12/23 06:18:46;;;;;;;244.00;30.88;;;;;;;7.95;68.71;98209.13;4330981;33;20393;-82
2022/12/23 06:21:12;;;;;;;131.18;25.98;;;;;;;7.78;68.73;98210.84;4332882;33;20479;-84
2022/12/23 06:23:37;;;;;;;91.05;22.20;;;;;;;7.80;68.44;98210.78;4331451;33;20110;-82
2022/12/23 06:26:02;;;;;;;148.93;27.62;;;;;;;7.92;68.53;98210.16;4317688;33;20420;-83
2022/12/23 06:28:28;;;;;;;53.70;19.55;;;;;;;7.76;68.92;98206.62;4332115;33;20099;-82
2022/12/23 06:30:55;;;;;;;121.50;23.73;;;;;;;7.97;68.50;98204.66;4330533;33;20126;-83
2022/12/23 06:33:21;;;;;;;56.95;22.50;;;;;;;8.08;68.45;98202.28;4329608;33;20153;-83
2022/12/23 06:35:46;;;;;;;50.72;21.27;;;;;;;8.21;68.09;98203.31;4318807;33;20111;-83
2022/12/23 06:38:12;;;;;;;52.90;20.52;;;;;;;8.26;68.27;98203.06;4331919;33;20130;-81
2022/12/23 06:40:37;;;;;;;40.08;19.17;;;;;;;8.28;67.86;98209.06;4331122;33;20092;-82
2022/12/23 06:43:03;;;;;;;38.05;18.65;;;;;;;8.12;67.91;98210.84;4330650;33;20394;-83
2022/12/23 06:45:28;;;;;;;37.97;19.05;;;;;;;8.23;67.79;98217.22;4331070;33;20100;-81
2022/12/23 06:47:54;;;;;;;40.83;19.40;;;;;;;7.87;68.44;98225.25;4331559;33;20114;-83
2022/12/23 06:50:19;;;;;;;57.42;21.02;;;;;;;8.06;67.68;98225.16;4330124;33;20428;-82
2022/12/23 06:52:45;;;;;;;100.47;24.27;;;;;;;8.08;67.22;98232.00;4331847;33;20119;-82
2022/12/23 06:55:11;;;;;;;130.90;24.30;;;;;;;8.20;66.64;98227.84;4330891;33;20160;-83
2022/12/23 06:57:36;;;;;;;221.73;28.80;;;;;;;8.14;65.78;98225.56;4319486;33;20122;-82
2022/12/23 07:00:03;;;;;;;72.82;24.30;;;;;;;7.94;66.98;98225.78;4331416;33;20096;-82
2022/12/23 07:02:29;;;;;;;180.65;28.75;;;;;;;8.06;66.77;98236.47;4331886;33;20133;-82
2022/12/23 07:04:54;;;;;;;156.07;25.27;;;;;;;7.96;67.02;98244.91;4331412;33;20099;-83
2022/12/23 07:07:20;;;;;;;78.55;23.60;;;;;;;7.77;67.97;98250.28;4331298;33;20142;-81
2022/12/23 07:09:45;;;;;;;234.73;30.20;;;;;;;7.98;67.69;98261.44;4330226;33;20119;-83
2022/12/23 07:12:10;;;;;;;339.95;38.05;;;;;;;8.10;67.39;98259.94;4317995;33;20171;-81
2022/12/23 07:14:36;;;;;;;62.62;23.23;;;;;;;8.15;66.89;98268.38;4332411;33;20472;-83
2022/12/23 07:17:01;;;;;;;73.47;25.67;;;;;;;8.20;66.99;98255.87;4330939;33;20095;-83
2022/12/23 07:19:27;;;;;;;147.35;28.58;;;;;;;8.19;67.23;98257.66;4318761;33;20095;-84
2022/12/23 07:21:52;;;;;;;197.68;27.42;;;;;;;8.20;67.23;98258.50;4317453;33;20088;-84
2022/12/23 07:24:17;;;;;;;214.57;28.17;;;;;;;8.30;66.84;98251.81;4331849;33;20107;-84
2022/12/23 07:26:43;;;;;;;123.80;29.20;;;;;;;8.12;67.11;98251.03;4329564;33;20122;-83
2022/12/23 07:29:08;;;;;;;460.45;44.83;;;;;;;8.22;66.95;98254.84;4332729;33;20122;-82
2022/12/23 07:31:34;;;;;;;490.27;49.13;;;;;;;7.91;66.93;98244.31;4333762;33;20131;-82
2022/12/23 07:33:59;;;;;;;209.45;33.90;;;;;;;7.47;68.25;98241.28;4333697;33;20119;-83
2022/12/23 07:36:25;;;;;;;127.82;26.00;;;;;;;8.10;67.11;98231.06;4333983;33;20134;-82
2022/12/23 07:38:50;;;;;;;391.27;37.72;;;;;;;8.18;66.87;98234.97;4332363;33;20195;-83
2022/12/23 07:41:16;;;;;;;213.45;28.65;;;;;;;7.93;67.00;98232.81;4333915;33;20364;-86
2022/12/23 07:43:42;;;;;;;147.90;25.05;;;;;;;8.15;66.12;98222.03;4335935;33;20147;-85
2022/12/23 07:46:08;;;;;;;333.92;35.20;;;;;;;8.23;65.86;98230.34;4335799;33;20480;-86
2022/12/23 07:48:33;;;;;;;375.73;40.97;;;;;;;7.78;66.88;98234.44;4334742;33;20083;-85
2022/12/23 07:51:00;;;;;;;468.20;43.80;;;;;;;7.89;66.46;98236.53;4335735;33;20072;-88
2022/12/23 07:53:26;;;;;;;162.93;27.37;;;;;;;7.87;66.96;98236.59;4322691;33;20472;-88
2022/12/23 07:55:52;;;;;;;56.35;20.08;;;;;;;7.58;67.61;98232.03;4335966;33;20115;-88
2022/12/23 07:58:17;;;;;;;327.20;34.60;;;;;;;7.73;67.72;98233.84;4336051;33;20110;-84
2022/12/23 08:00:42;;;;;;;111.72;22.37;;;;;;;7.89;67.14;98231.28;4330118;33;20373;-81
2022/12/23 08:03:10;;;;;;;193.37;25.75;;;;;;;8.14;66.42;98238.69;4331706;33;20099;-82
2022/12/23 08:05:35;;;;;;;73.90;20.75;;;;;;;8.06;68.08;98225.97;4324306;33;20165;-82
2022/12/23 08:08:01;;;;;;;53.97;19.27;;;;;;;8.31;67.18;98226.44;4336035;33;20122;-82
2022/12/23 08:10:26;;;;;;;40.03;18.10;;;;;;;8.20;67.66;98227.03;4333133;33;20071;-82
2022/12/23 08:12:52;;;;;;;49.25;19.10;;;;;;;8.55;66.98;98222.50;4332092;33;20749;-82
2022/12/23 08:15:17;;;;;;;42.35;18.35;;;;;;;8.77;66.68;98223.91;4333361;33;20444;-82
2022/12/23 08:17:43;;;;;;;50.10;18.50;;;;;;;8.94;65.91;98213.31;4333593;33;20487;-82
2022/12/23 08:20:08;;;;;;;39.88;17.70;;;;;;;9.07;66.16;98213.44;4334002;33;20083;-82
2022/12/23 08:22:34;;;;;;;43.38;16.92;;;;;;;9.22;65.33;98219.63;4331356;33;20097;-80
2022/12/23 08:24:59;;;;;;;34.35;15.55;;;;;;;9.28;64.65;98208.72;4331245;33;20127;-78
2022/12/23 08:27:25;;;;;;;36.72;15.57;;;;;;;9.21;64.67;98212.66;4333964;33;20135;-81
2022/12/23 08:29:51;;;;;;;30.27;14.52;;;;;;;9.30;63.61;98212.13;4331704;33;20188;-81
2022/12/23 08:32:16;;;;;;;42.67;16.17;;;;;;;9.37;63.39;98217.87;4307343;33;20128;-81
2022/12/23 08:34:41;;;;;;;33.65;15.15;;;;;;;9.02;62.71;98213.72;4331508;33;20151;-81
2022/12/23 08:37:07;;;;;;;36.70;15.25;;;;;;;9.15;62.46;98219.09;4333071;33;20092;-83
2022/12/23 08:39:32;;;;;;;33.60;15.68;;;;;;;9.23;62.20;98222.16;4319623;33;20127;-81
2022/12/23 08:41:58;;;;;;;45.05;18.35;;;;;;;9.25;62.45;98215.03;4331638;33;20164;-82
2022/12/23 08:44:26;;;;;;;34.90;15.63;;;;;;;9.20;62.82;98213.59;4332120;33;20118;-82
2022/12/23 08:46:54;;;;;;;44.05;17.25;;;;;;;9.26;62.31;98205.34;4332498;33;20130;-82
2022/12/23 08:49:20;;;;;;;36.40;16.15;;;;;;;9.25;62.35;98204.50;4331380;33;20456;-83
2022/12/23 08:51:47;;;;;;;35.78;16.50;;;;;;;9.32;62.15;98193.63;4330139;33;20217;-82
2022/12/23 08:54:13;;;;;;;35.78;16.67;;;;;;;9.35;62.39;98183.78;4323611;33;20137;-82
2022/12/23 08:56:40;;;;;;;41.53;16.80;;;;;;;9.35;62.46;98172.41;4320103;33;20365;-82
2022/12/23 08:59:06;;;;;;;55.10;16.67;;;;;;;9.35;61.94;98160.12;4319391;33;20197;-83
2022/12/23 09:01:32;;;;;;;38.22;17.45;;;;;;;9.35;61.45;98162.75;4325163;33;214572;-80
2022/12/23 09:04:01;;;;;;;35.97;15.10;;;;;;;9.44;60.90;98158.72;4319156;33;20408;-82
2022/12/23 09:06:28;;;;;;;35.42;16.17;;;;;;;9.38;61.50;98159.94;4331153;33;20484;-81
2022/12/23 09:08:53;;;;;;;34.63;15.77;;;;;;;9.63;60.82;98164.56;4333075;33;20369;-83
2022/12/23 09:11:21;;;;;;;37.20;18.08;;;;;;;9.83;61.45;98167.75;4331955;33;20150;-82
2022/12/23 09:13:47;;;;;;;61.78;18.87;;;;;;;9.82;61.10;98169.53;4331492;33;20161;-82
2022/12/23 09:16:13;;;;;;;46.40;17.00;;;;;;;9.63;60.64;98182.13;4318749;33;20577;-82
2022/12/23 09:18:38;;;;;;;67.18;17.85;;;;;;;9.76;59.76;98188.34;4332928;33;20083;-82
2022/12/23 09:21:16;;;;;;;77.97;19.50;;;;;;;9.67;59.17;98185.41;4331374;33;20474;-82
2022/12/23 09:23:42;;;;;;;107.40;19.85;;;;;;;9.13;60.84;98183.34;4331572;33;20174;-82
2022/12/23 09:26:08;;;;;;;180.02;24.35;;;;;;;8.80;61.38;98200.13;4331304;33;20119;-81
2022/12/23 09:28:34;;;;;;;48.67;18.60;;;;;;;8.89;61.66;98198.75;4333476;33;20091;-82
2022/12/23 09:31:07;;;;;;;39.42;17.40;;;;;;;9.20;61.48;98190.78;4331597;33;20393;-82
2022/12/23 09:33:33;;;;;;;52.92;18.98;;;;;;;9.10;62.07;98191.41;4331518;33;20111;-82
2022/12/23 09:35:59;;;;;;;39.63;17.60;;;;;;;9.28;61.96;98182.44;4333251;33;20158;-82
2022/12/23 09:38:24;;;;;;;68.18;20.40;;;;;;;9.47;61.93;98178.75;4332120;33;20141;-84
2022/12/23 09:40:50;;;;;;;87.93;20.17;;;;;;;9.25;62.67;98175.59;4332718;33;20122;-84
2022/12/23 09:43:28;;;;;;;41.88;17.77;;;;;;;9.61;61.78;98176.12;4317982;33;20499;-81
2022/12/23 09:46:14;;;;;;;44.30;17.80;;;;;;;9.82;61.33;98163.44;4331413;33;20542;-81
2022/12/23 09:48:44;;;;;;;75.97;20.73;;;;;;;10.02;60.62;98152.53;4318047;33;20126;-81
2022/12/23 09:51:11;;;;;;;52.67;21.60;;;;;;;9.67;60.99;98157.31;4316105;33;20449;-82
2022/12/23 09:53:39;;;;;;;236.73;28.42;;;;;;;9.94;59.93;98167.94;4330572;33;20597;-81
2022/12/23 09:56:07;;;;;;;474.35;40.90;;;;;;;9.71;59.54;98171.16;4328518;33;20236;-81
2022/12/23 09:59:08;;;;;;;80.07;22.48;;;;;;;8.57;62.68;98169.91;4331364;33;20395;-81
2022/12/23 10:01:45;;;;;;;275.67;27.77;;;;;;;9.09;62.20;98172.16;4300383;33;20166;-81
2022/12/23 10:04:33;;;;;;;91.40;20.95;;;;;;;8.62;63.15;98168.72;4301068;33;20120;-81
2022/12/23 10:07:24;;;;;;;91.87;24.40;;;;;;;8.75;62.63;98163.63;4298991;33;20104;-81
2022/12/23 10:09:52;;;;;;;49.92;20.05;;;;;;;9.13;62.19;98142.16;4289139;33;20113;-81
2022/12/23 10:12:35;;;;;;;57.58;20.67;;;;;;;9.27;62.51;98136.06;4289549;33;20112;-81
2022/12/23 10:15:01;;;;;;;122.97;22.95;;;;;;;9.14;64.07;98130.72;4288648;33;20105;-81
2022/12/23 10:17:31;;;;;;;38.08;16.98;;;;;;;8.84;64.40;98126.31;4287058;33;20097;-81
2022/12/23 10:19:59;;;;;;;50.00;20.05;;;;;;;9.22;64.15;98125.00;4285694;33;20127;-81
2022/12/23 10:22:40;;;;;;;49.55;19.45;;;;;;;9.36;63.99;98118.91;4287544;33;20096;-81
2022/12/23 10:25:19;;;;;;;42.10;18.00;;;;;;;9.44;63.75;98116.66;4285105;33;20097;-80
2022/12/23 10:27:44;;;;;;;;;;;;;;;9.60;62.97;98121.81;4284129;33;20169;-81
2022/12/23 10:30:17;;;;;;;42.30;18.33;;;;;;;9.65;63.00;98117.13;4288948;33;20254;-81
2022/12/23 10:33:00;;;;;;;47.97;19.95;;;;;;;9.90;62.94;98110.34;4273944;33;20729;-81
2022/12/23 10:35:49;;;;;;;51.88;19.70;;;;;;;10.13;61.68;98101.00;4288794;33;20150;-80
2022/12/23 10:38:43;;;;;;;62.75;22.70;;;;;;;10.00;61.61;98096.50;4329479;33;20088;-81
2022/12/23 10:41:24;;;;;;;66.30;21.87;;;;;;;10.21;61.57;98090.81;4331896;33;20162;-80
2022/12/23 10:43:59;;;;;;;51.00;20.40;;;;;;;10.14;61.36;98086.88;4331093;33;20123;-81
2022/12/23 10:46:35;;;;;;;42.13;18.35;;;;;;;10.22;60.86;98084.62;4330289;33;20170;-81
2022/12/23 10:49:16;;;;;;;37.35;17.00;;;;;;;10.21;61.47;98081.13;4318968;33;20083;-81
2022/12/23 10:51:48;;;;;;;37.47;17.90;;;;;;;10.49;61.14;98084.66;4317905;33;20118;-81
2022/12/23 10:54:25;;;;;;;35.53;16.87;;;;;;;10.54;60.94;98079.06;4335581;33;20100;-82
2022/12/23 10:56:50;;;;;;;34.47;18.02;;;;;;;10.27;61.35;98079.06;4332685;33;20096;-80
2022/12/23 10:59:22;;;;;;;35.75;17.12;;;;;;;10.65;60.29;98081.03;4329066;33;20151;-80
2022/12/23 11:01:54;;;;;;;49.83;20.52;;;;;;;10.38;61.37;98095.03;4315351;33;20521;-82
2022/12/23 11:04:29;;;;;;;42.65;20.50;;;;;;;10.51;60.02;98084.56;4317366;33;20116;-88
2022/12/23 11:06:55;;;;;;;45.90;20.45;;;;;;;10.82;58.47;98094.75;4330528;33;20540;-86
2022/12/23 11:09:27;;;;;;;44.78;19.77;;;;;;;10.53;58.85;98090.56;4318501;33;20143;-86
2022/12/23 11:11:57;;;;;;;45.10;20.30;;;;;;;10.61;57.99;98081.22;4330821;33;20107;-86
2022/12/23 11:14:31;;;;;;;46.25;20.58;;;;;;;10.54;58.03;98089.63;4330771;33;20095;-87
2022/12/23 11:16:57;;;;;;;46.83;18.83;;;;;;;10.42;58.76;98086.84;4319628;33;20174;-84
2022/12/23 11:19:22;;;;;;;48.92;19.50;;;;;;;10.44;59.26;98084.09;4333399;33;20468;-86
2022/12/23 11:21:59;;;;;;;48.78;20.37;;;;;;;9.79;60.45;98089.97;4333403;33;20071;-86
2022/12/23 11:24:32;;;;;;;47.03;20.48;;;;;;;9.80;60.69;98078.53;4333862;33;20494;-85
2022/12/23 11:27:05;;;;;;;40.63;19.58;;;;;;;10.09;59.69;98076.66;4331573;33;20095;-87
2022/12/23 11:29:36;;;;;;;45.85;21.15;;;;;;;10.23;59.19;98075.78;4319921;33;20095;-87
2022/12/23 11:32:12;;;;;;;44.58;19.55;;;;;;;10.30;59.19;98069.22;4332462;33;20139;-87
2022/12/23 11:34:38;;;;;;;48.60;20.77;;;;;;;10.30;59.32;98069.22;4307726;33;20178;-82
2022/12/23 11:37:03;;;;;;;47.17;20.37;;;;;;;10.34;59.27;98073.34;4332317;33;20092;-82
2022/12/23 11:39:33;;;;;;;47.42;21.40;;;;;;;10.32;59.52;98079.66;4332629;33;20118;-83
2022/12/23 11:42:06;;;;;;;44.58;20.10;;;;;;;10.34;59.47;98091.75;4320300;33;20092;-86
2022/12/23 11:44:37;;;;;;;49.95;20.95;;;;;;;10.35;59.28;98087.34;4332496;33;20135;-85
2022/12/23 11:47:24;;;;;;;58.47;21.02;;;;;;;10.33;59.16;98094.50;4318683;33;20121;-87
2022/12/23 11:49:54;;;;;;;48.85;20.73;;;;;;;9.89;60.18;98093.72;4318667;33;20463;-84
2022/12/23 11:52:25;;;;;;;54.92;20.60;;;;;;;10.09;59.81;98110.03;4330343;33;20183;-84
2022/12/23 11:54:56;;;;;;;48.30;20.65;;;;;;;9.31;61.67;98107.81;4326995;33;20103;-88
2022/12/23 11:57:30;;;;;;;47.10;21.60;;;;;;;9.78;60.83;98109.34;4339199;33;20108;-86